createdAt,value
2018-01-15T00:00:56.160Z,0
2018-01-15T00:01:55.669Z,0
2018-01-15T00:02:56.437Z,0
2018-01-15T00:03:55.948Z,0
2018-01-15T00:04:55.965Z,0
2018-01-15T00:05:55.718Z,0
2018-01-15T00:06:56.245Z,0
2018-01-15T00:07:55.984Z,0
2018-01-15T00:08:56.264Z,0
2018-01-15T00:09:56.284Z,0
2018-01-15T00:10:56.043Z,0
2018-01-15T00:11:56.307Z,0
2018-01-15T00:12:56.619Z,0
2018-01-15T00:13:56.330Z,0
2018-01-15T00:14:56.338Z,0
2018-01-15T00:15:56.352Z,0
2018-01-15T00:16:56.393Z,0
2018-01-15T00:17:56.123Z,0
2018-01-15T00:18:56.645Z,0
2018-01-15T00:19:56.653Z,0
2018-01-15T00:20:56.419Z,0
2018-01-15T00:21:56.428Z,0
2018-01-15T00:22:56.692Z,0
2018-01-15T00:23:56.200Z,0
2018-01-15T00:24:56.714Z,0
2018-01-15T00:25:56.476Z,0
2018-01-15T00:26:56.240Z,0
2018-01-15T00:27:56.549Z,0
2018-01-15T00:28:56.262Z,0
2018-01-15T00:29:56.574Z,0
2018-01-15T00:30:56.540Z,0
2018-01-15T00:31:56.805Z,0
2018-01-15T00:32:56.568Z,0
2018-01-15T00:33:56.827Z,0
2018-01-15T00:34:56.086Z,0
2018-01-15T00:35:56.357Z,0
2018-01-15T00:36:56.361Z,0
2018-01-15T00:37:56.122Z,0
2018-01-15T00:38:56.641Z,0
2018-01-15T00:39:56.401Z,0
2018-01-15T00:40:56.157Z,0
2018-01-15T00:41:56.428Z,0
2018-01-15T00:42:56.488Z,0
2018-01-15T00:43:56.955Z,0
2018-01-15T00:44:56.458Z,0
2018-01-15T00:45:56.724Z,0
2018-01-15T00:46:56.743Z,0
2018-01-15T00:47:56.520Z,0
2018-01-15T00:48:56.764Z,0
2018-01-15T00:49:56.780Z,0
2018-01-15T00:50:56.542Z,0
2018-01-15T00:51:56.799Z,0
2018-01-15T00:52:56.405Z,0
2018-01-15T00:53:57.075Z,0
2018-01-15T00:54:56.588Z,0
2018-01-15T00:55:56.854Z,0
2018-01-15T00:56:56.928Z,0
2018-01-15T00:57:57.045Z,0
2018-01-15T00:58:56.911Z,0
2018-01-15T00:59:56.903Z,0
2018-01-15T01:00:56.918Z,0
2018-01-15T01:01:56.928Z,0
2018-01-15T01:02:56.941Z,0
2018-01-15T01:03:56.955Z,0
2018-01-15T01:04:56.713Z,0
2018-01-15T01:05:56.722Z,0
2018-01-15T01:06:57.246Z,0
2018-01-15T01:07:57.004Z,0
2018-01-15T01:08:56.760Z,0
2018-01-15T01:09:57.035Z,0
2018-01-15T01:10:57.040Z,0
2018-01-15T01:11:56.800Z,0
2018-01-15T01:12:57.121Z,0
2018-01-15T01:13:56.838Z,0
2018-01-15T01:14:57.340Z,0
2018-01-15T01:15:57.104Z,0
2018-01-15T01:16:56.861Z,0
2018-01-15T01:17:56.624Z,0
2018-01-15T01:18:56.889Z,0
2018-01-15T01:19:57.404Z,0
2018-01-15T01:20:56.920Z,0
2018-01-15T01:21:57.178Z,0
2018-01-15T01:22:57.215Z,0
2018-01-15T01:23:57.206Z,0
2018-01-15T01:24:56.964Z,0
2018-01-15T01:25:57.233Z,0
2018-01-15T01:26:56.989Z,0
2018-01-15T01:27:56.821Z,0
2018-01-15T01:28:56.765Z,0
2018-01-15T01:29:57.534Z,0
2018-01-15T01:30:57.297Z,0
2018-01-15T01:31:57.312Z,0
2018-01-15T01:32:57.322Z,0
2018-01-15T01:33:57.336Z,0
2018-01-15T01:34:57.341Z,0
2018-01-15T01:35:57.361Z,0
2018-01-15T01:36:57.616Z,0
2018-01-15T01:37:57.675Z,0
2018-01-15T01:38:57.396Z,0
2018-01-15T01:39:57.152Z,0
2018-01-15T01:40:57.667Z,0
2018-01-15T01:41:57.177Z,0
2018-01-15T01:42:57.004Z,0
2018-01-15T01:43:57.453Z,0
2018-01-15T01:44:57.464Z,0
2018-01-15T01:45:57.225Z,0
2018-01-15T01:46:57.492Z,0
2018-01-15T01:47:57.501Z,0
2018-01-15T01:48:57.779Z,0
2018-01-15T01:49:57.779Z,0
2018-01-15T01:50:57.543Z,0
2018-01-15T01:51:57.049Z,0
2018-01-15T01:52:57.329Z,0
2018-01-15T01:53:57.835Z,0
2018-01-15T01:54:57.591Z,0
2018-01-15T01:55:57.600Z,0
2018-01-15T01:56:57.613Z,0
2018-01-15T01:57:57.885Z,0
2018-01-15T01:58:57.639Z,0
2018-01-15T01:59:57.709Z,0
2018-01-15T02:00:57.410Z,0
2018-01-15T02:01:57.700Z,0
2018-01-15T02:02:57.689Z,0
2018-01-15T02:03:57.704Z,0
2018-01-15T02:04:57.462Z,0
2018-01-15T02:05:57.722Z,0
2018-01-15T02:06:57.739Z,0
2018-01-15T02:07:57.495Z,0
2018-01-15T02:08:57.257Z,0
2018-01-15T02:09:57.777Z,0
2018-01-15T02:10:57.788Z,0
2018-01-15T02:11:57.808Z,0
2018-01-15T02:12:57.574Z,0
2018-01-15T02:13:57.567Z,0
2018-01-15T02:14:57.637Z,0
2018-01-15T02:15:57.596Z,0
2018-01-15T02:16:58.109Z,0
2018-01-15T02:17:57.866Z,0
2018-01-15T02:18:57.383Z,0
2018-01-15T02:19:57.397Z,0
2018-01-15T02:20:58.026Z,0
2018-01-15T02:21:57.918Z,0
2018-01-15T02:22:57.932Z,0
2018-01-15T02:23:57.690Z,0
2018-01-15T02:24:58.219Z,0
2018-01-15T02:25:57.718Z,0
2018-01-15T02:26:58.004Z,0
2018-01-15T02:27:58.008Z,0
2018-01-15T02:28:58.013Z,0
2018-01-15T02:29:58.019Z,0
2018-01-15T02:30:57.834Z,0
2018-01-15T02:31:57.790Z,0
2018-01-15T02:32:58.070Z,0
2018-01-15T02:33:58.326Z,0
2018-01-15T02:34:58.086Z,0
2018-01-15T02:35:58.096Z,0
2018-01-15T02:36:58.380Z,0
2018-01-15T02:37:58.121Z,0
2018-01-15T02:38:57.892Z,0
2018-01-15T02:39:57.926Z,0
2018-01-15T02:40:58.154Z,0
2018-01-15T02:41:57.913Z,0
2018-01-15T02:42:58.481Z,0
2018-01-15T02:43:57.937Z,0
2018-01-15T02:44:58.205Z,0
2018-01-15T02:45:58.015Z,0
2018-01-15T02:46:58.228Z,0
2018-01-15T02:47:57.990Z,0
2018-01-15T02:48:58.250Z,0
2018-01-15T02:49:58.013Z,0
2018-01-15T02:50:58.534Z,0
2018-01-15T02:51:58.291Z,0
2018-01-15T02:52:58.051Z,0
2018-01-15T02:53:58.317Z,0
2018-01-15T02:54:58.336Z,0
2018-01-15T02:55:58.341Z,0
2018-01-15T02:56:58.098Z,0
2018-01-15T02:57:58.614Z,0
2018-01-15T02:58:58.637Z,0
2018-01-15T02:59:58.138Z,0
2018-01-15T03:00:58.450Z,0
2018-01-15T03:01:58.163Z,0
2018-01-15T03:02:58.700Z,0
2018-01-15T03:03:58.444Z,0
2018-01-15T03:04:58.706Z,0
2018-01-15T03:05:57.961Z,0
2018-01-15T03:06:58.725Z,0
2018-01-15T03:07:58.242Z,0
2018-01-15T03:08:58.250Z,0
2018-01-15T03:09:58.522Z,0
2018-01-15T03:10:58.274Z,0
2018-01-15T03:11:58.542Z,0
2018-01-15T03:12:58.301Z,0
2018-01-15T03:13:58.062Z,0
2018-01-15T03:14:58.578Z,0
2018-01-15T03:15:58.395Z,0
2018-01-15T03:16:58.349Z,0
2018-01-15T03:17:58.625Z,0
2018-01-15T03:18:58.627Z,0
2018-01-15T03:19:58.644Z,0
2018-01-15T03:20:58.509Z,0
2018-01-15T03:21:58.665Z,0
2018-01-15T03:22:58.681Z,0
2018-01-15T03:23:58.443Z,0
2018-01-15T03:24:58.705Z,0
2018-01-15T03:25:58.971Z,0
2018-01-15T03:26:58.483Z,0
2018-01-15T03:27:58.492Z,0
2018-01-15T03:28:58.512Z,0
2018-01-15T03:29:58.515Z,0
2018-01-15T03:30:58.582Z,0
2018-01-15T03:31:58.806Z,0
2018-01-15T03:32:58.566Z,0
2018-01-15T03:33:58.825Z,0
2018-01-15T03:34:58.585Z,0
2018-01-15T03:35:59.093Z,0
2018-01-15T03:36:58.867Z,0
2018-01-15T03:37:58.873Z,0
2018-01-15T03:38:58.891Z,0
2018-01-15T03:39:58.647Z,0
2018-01-15T03:40:58.654Z,0
2018-01-15T03:41:58.674Z,0
2018-01-15T03:42:58.686Z,0
2018-01-15T03:43:59.211Z,0
2018-01-15T03:44:59.221Z,0
2018-01-15T03:45:59.280Z,0
2018-01-15T03:46:58.743Z,0
2018-01-15T03:47:58.765Z,0
2018-01-15T03:48:59.018Z,0
2018-01-15T03:49:59.285Z,0
2018-01-15T03:50:59.046Z,0
2018-01-15T03:51:58.803Z,0
2018-01-15T03:52:59.067Z,0
2018-01-15T03:53:58.823Z,0
2018-01-15T03:54:59.090Z,0
2018-01-15T03:55:59.554Z,0
2018-01-15T03:56:58.864Z,0
2018-01-15T03:57:59.386Z,0
2018-01-15T03:58:59.140Z,0
2018-01-15T03:59:58.900Z,0
2018-01-15T04:00:59.215Z,0
2018-01-15T04:01:59.434Z,0
2018-01-15T04:02:59.195Z,0
2018-01-15T04:03:58.954Z,0
2018-01-15T04:04:59.214Z,0
2018-01-15T04:05:58.726Z,0
2018-01-15T04:06:59.241Z,0
2018-01-15T04:07:59.270Z,0
2018-01-15T04:08:59.275Z,0
2018-01-15T04:09:59.297Z,0
2018-01-15T04:10:59.304Z,0
2018-01-15T04:11:59.312Z,0
2018-01-15T04:12:59.067Z,0
2018-01-15T04:13:59.341Z,0
2018-01-15T04:14:59.596Z,0
2018-01-15T04:15:59.160Z,0
2018-01-15T04:16:59.380Z,0
2018-01-15T04:17:59.132Z,0
2018-01-15T04:18:58.898Z,0
2018-01-15T04:19:59.410Z,0
2018-01-15T04:20:59.684Z,0
2018-01-15T04:21:59.187Z,0
2018-01-15T04:22:59.201Z,0
2018-01-15T04:23:59.465Z,0
2018-01-15T04:24:59.729Z,0
2018-01-15T04:25:59.234Z,0
2018-01-15T04:26:59.246Z,0
2018-01-15T04:27:59.515Z,0
2018-01-15T04:28:59.774Z,0
2018-01-15T04:29:59.293Z,0
2018-01-15T04:30:59.353Z,0
2018-01-15T04:31:59.574Z,0
2018-01-15T04:32:59.578Z,0
2018-01-15T04:33:59.087Z,0
2018-01-15T04:34:59.602Z,0
2018-01-15T04:35:59.361Z,0
2018-01-15T04:36:59.880Z,0
2018-01-15T04:37:59.388Z,0
2018-01-15T04:38:59.903Z,0
2018-01-15T04:39:59.666Z,0
2018-01-15T04:40:59.174Z,0
2018-01-15T04:41:59.686Z,0
2018-01-15T04:42:59.451Z,0
2018-01-15T04:43:59.462Z,0
2018-01-15T04:44:59.725Z,0
2018-01-15T04:45:59.795Z,0
2018-01-15T04:46:59.490Z,0
2018-01-15T04:47:59.504Z,0
2018-01-15T04:48:59.767Z,0
2018-01-15T04:49:59.298Z,0
2018-01-15T04:51:00.056Z,0
2018-01-15T04:51:59.817Z,0
2018-01-15T04:52:59.832Z,0
2018-01-15T04:53:59.843Z,0
2018-01-15T04:55:00.118Z,0
2018-01-15T04:55:59.969Z,0
2018-01-15T04:57:00.134Z,0
2018-01-15T04:57:59.890Z,0
2018-01-15T04:59:00.158Z,0
2018-01-15T04:59:59.920Z,0
2018-01-15T05:00:59.725Z,0
2018-01-15T05:01:59.944Z,0
2018-01-15T05:02:59.701Z,0
2018-01-15T05:03:59.715Z,0
2018-01-15T05:04:59.723Z,0
2018-01-15T05:05:59.991Z,0
2018-01-15T05:06:59.755Z,0
2018-01-15T05:08:00.041Z,0
2018-01-15T05:08:59.775Z,0
2018-01-15T05:09:59.789Z,0
2018-01-15T05:11:00.055Z,0
2018-01-15T05:12:00.066Z,0
2018-01-15T05:13:00.076Z,0
2018-01-15T05:14:00.090Z,0
2018-01-15T05:15:00.353Z,0
2018-01-15T05:15:59.910Z,0
2018-01-15T05:17:00.129Z,0
2018-01-15T05:18:00.142Z,0
2018-01-15T05:19:00.155Z,0
2018-01-15T05:19:59.917Z,0
2018-01-15T05:21:00.175Z,0
2018-01-15T05:22:00.199Z,0
2018-01-15T05:23:00.454Z,0
2018-01-15T05:24:00.215Z,0
2018-01-15T05:25:00.228Z,0
2018-01-15T05:26:00.257Z,0
2018-01-15T05:27:00.253Z,0
2018-01-15T05:28:00.565Z,0
2018-01-15T05:29:00.278Z,0
2018-01-15T05:30:00.291Z,0
2018-01-15T05:30:59.800Z,0
2018-01-15T05:32:00.067Z,0
2018-01-15T05:33:00.075Z,0
2018-01-15T05:34:00.400Z,0
2018-01-15T05:35:00.605Z,0
2018-01-15T05:36:00.378Z,0
2018-01-15T05:37:00.128Z,0
2018-01-15T05:38:00.160Z,0
2018-01-15T05:39:00.151Z,0
2018-01-15T05:40:00.414Z,0
2018-01-15T05:41:00.440Z,0
2018-01-15T05:42:00.439Z,0
2018-01-15T05:43:00.472Z,0
2018-01-15T05:44:00.494Z,0
2018-01-15T05:45:00.735Z,0
2018-01-15T05:46:00.492Z,0
2018-01-15T05:47:00.509Z,0
2018-01-15T05:48:00.519Z,0
2018-01-15T05:49:00.578Z,0
2018-01-15T05:50:00.550Z,0
2018-01-15T05:51:00.317Z,0
2018-01-15T05:52:00.602Z,0
2018-01-15T05:53:00.352Z,0
2018-01-15T05:54:00.856Z,0
2018-01-15T05:55:00.366Z,0
2018-01-15T05:56:00.625Z,0
2018-01-15T05:57:00.388Z,0
2018-01-15T05:58:00.399Z,0
2018-01-15T05:59:00.258Z,0
2018-01-15T06:00:00.420Z,0
2018-01-15T06:01:00.689Z,0
2018-01-15T06:02:00.719Z,0
2018-01-15T06:03:00.973Z,0
2018-01-15T06:04:01.030Z,0
2018-01-15T06:05:01.042Z,0
2018-01-15T06:06:00.749Z,0
2018-01-15T06:07:01.030Z,0
2018-01-15T06:08:00.827Z,0
2018-01-15T06:09:00.798Z,0
2018-01-15T06:10:00.803Z,0
2018-01-15T06:11:00.570Z,0
2018-01-15T06:12:00.835Z,0
2018-01-15T06:13:00.591Z,0
2018-01-15T06:14:00.928Z,0
2018-01-15T06:15:00.613Z,0
2018-01-15T06:16:00.627Z,0
2018-01-15T06:17:00.677Z,0
2018-01-15T06:18:00.659Z,0
2018-01-15T06:19:00.719Z,0
2018-01-15T06:20:01.191Z,0
2018-01-15T06:21:01.207Z,0
2018-01-15T06:22:00.958Z,0
2018-01-15T06:23:00.719Z,0
2018-01-15T06:24:00.481Z,0
2018-01-15T06:25:01.063Z,0
2018-01-15T06:26:00.756Z,0
2018-01-15T06:27:01.282Z,0
2018-01-15T06:28:00.784Z,0
2018-01-15T06:29:01.051Z,0
2018-01-15T06:30:01.065Z,0
2018-01-15T06:31:00.822Z,4
2018-01-15T06:32:01.092Z,0
2018-01-15T06:33:01.101Z,0
2018-01-15T06:34:01.171Z,4
2018-01-15T06:35:01.381Z,0
2018-01-15T06:36:01.150Z,4
2018-01-15T06:37:01.159Z,4
2018-01-15T06:38:00.915Z,8
2018-01-15T06:39:00.925Z,8
2018-01-15T06:40:01.193Z,8
2018-01-15T06:41:00.956Z,8
2018-01-15T06:42:01.221Z,12
2018-01-15T06:43:01.482Z,12
2018-01-15T06:44:01.242Z,16
2018-01-15T06:45:00.756Z,16
2018-01-15T06:46:01.275Z,16
2018-01-15T06:47:01.031Z,20
2018-01-15T06:48:01.561Z,24
2018-01-15T06:49:01.117Z,24
2018-01-15T06:50:01.324Z,28
2018-01-15T06:51:01.336Z,32
2018-01-15T06:52:01.097Z,36
2018-01-15T06:53:01.423Z,36
2018-01-15T06:54:01.718Z,44
2018-01-15T06:55:00.889Z,48
2018-01-15T06:56:01.155Z,52
2018-01-15T06:57:00.912Z,60
2018-01-15T06:58:01.678Z,64
2018-01-15T06:59:01.192Z,76
2018-01-15T07:00:01.717Z,84
2018-01-15T07:01:01.478Z,88
2018-01-15T07:02:01.755Z,96
2018-01-15T07:03:01.563Z,96
2018-01-15T07:04:01.589Z,100
2018-01-15T07:05:01.527Z,108
2018-01-15T07:06:01.538Z,124
2018-01-15T07:07:01.549Z,140
2018-01-15T07:08:01.323Z,156
2018-01-15T07:09:01.825Z,172
2018-01-15T07:10:01.838Z,184
2018-01-15T07:11:01.604Z,196
2018-01-15T07:12:01.386Z,208
2018-01-15T07:13:01.631Z,220
2018-01-15T07:14:01.897Z,224
2018-01-15T07:15:01.909Z,232
2018-01-15T07:16:01.671Z,244
2018-01-15T07:17:01.696Z,252
2018-01-15T07:18:01.715Z,272
2018-01-15T07:19:02.032Z,284
2018-01-15T07:20:01.480Z,300
2018-01-15T07:21:01.481Z,312
2018-01-15T07:22:01.750Z,328
2018-01-15T07:23:01.508Z,336
2018-01-15T07:24:01.526Z,352
2018-01-15T07:25:01.536Z,372
2018-01-15T07:26:01.802Z,392
2018-01-15T07:27:01.563Z,412
2018-01-15T07:28:01.580Z,424
2018-01-15T07:29:01.842Z,440
2018-01-15T07:30:01.600Z,452
2018-01-15T07:31:01.613Z,460
2018-01-15T07:32:01.629Z,464
2018-01-15T07:33:02.147Z,464
2018-01-15T07:34:01.947Z,460
2018-01-15T07:35:01.965Z,456
2018-01-15T07:36:01.938Z,452
2018-01-15T07:37:01.695Z,452
2018-01-15T07:38:01.711Z,448
2018-01-15T07:39:02.222Z,460
2018-01-15T07:40:01.979Z,472
2018-01-15T07:41:02.250Z,496
2018-01-15T07:42:02.014Z,524
2018-01-15T07:43:02.027Z,556
2018-01-15T07:44:02.048Z,580
2018-01-15T07:45:02.049Z,604
2018-01-15T07:46:01.808Z,624
2018-01-15T07:47:02.073Z,640
2018-01-15T07:48:02.085Z,648
2018-01-15T07:49:02.128Z,648
2018-01-15T07:50:01.819Z,656
2018-01-15T07:51:01.624Z,684
2018-01-15T07:52:02.261Z,716
2018-01-15T07:53:01.902Z,760
2018-01-15T07:54:02.420Z,812
2018-01-15T07:55:02.179Z,864
2018-01-15T07:56:02.444Z,908
2018-01-15T07:57:01.954Z,956
2018-01-15T07:58:02.217Z,996
2018-01-15T07:59:01.977Z,1032
2018-01-15T08:00:01.991Z,1056
2018-01-15T08:01:02.511Z,1060
2018-01-15T08:02:02.271Z,1068
2018-01-15T08:03:02.285Z,1060
2018-01-15T08:04:02.563Z,1056
2018-01-15T08:05:02.618Z,1044
2018-01-15T08:06:02.072Z,1036
2018-01-15T08:07:02.089Z,1028
2018-01-15T08:08:02.101Z,1012
2018-01-15T08:09:02.126Z,996
2018-01-15T08:10:02.410Z,988
2018-01-15T08:11:02.142Z,992
2018-01-15T08:12:02.154Z,996
2018-01-15T08:13:02.166Z,1008
2018-01-15T08:14:02.688Z,1024
2018-01-15T08:15:02.446Z,1052
2018-01-15T08:16:02.458Z,1080
2018-01-15T08:17:02.722Z,1108
2018-01-15T08:18:02.731Z,1132
2018-01-15T08:19:02.494Z,1160
2018-01-15T08:20:02.563Z,1188
2018-01-15T08:21:02.531Z,1212
2018-01-15T08:22:02.324Z,1236
2018-01-15T08:23:02.306Z,1272
2018-01-15T08:24:02.567Z,1304
2018-01-15T08:25:02.583Z,1336
2018-01-15T08:26:02.851Z,1368
2018-01-15T08:27:02.603Z,1396
2018-01-15T08:28:02.694Z,1424
2018-01-15T08:29:02.667Z,1448
2018-01-15T08:30:02.690Z,1464
2018-01-15T08:31:02.421Z,1480
2018-01-15T08:32:02.169Z,1512
2018-01-15T08:33:02.182Z,1536
2018-01-15T08:34:02.448Z,1560
2018-01-15T08:35:03.013Z,1576
2018-01-15T08:36:02.737Z,1596
2018-01-15T08:37:02.994Z,1612
2018-01-15T08:38:02.248Z,1628
2018-01-15T08:39:02.766Z,1644
2018-01-15T08:40:02.527Z,1652
2018-01-15T08:41:02.539Z,1664
2018-01-15T08:42:02.812Z,1684
2018-01-15T08:43:02.566Z,1716
2018-01-15T08:44:02.588Z,1744
2018-01-15T08:45:02.696Z,1776
2018-01-15T08:46:02.954Z,1824
2018-01-15T08:47:03.130Z,1892
2018-01-15T08:48:02.375Z,1948
2018-01-15T08:49:02.896Z,2020
2018-01-15T08:50:02.706Z,2096
2018-01-15T08:51:02.669Z,2176
2018-01-15T08:52:02.927Z,2256
2018-01-15T08:53:03.196Z,2328
2018-01-15T08:54:02.969Z,2404
2018-01-15T08:55:02.724Z,2468
2018-01-15T08:56:03.254Z,2540
2018-01-15T08:57:02.750Z,2608
2018-01-15T08:58:03.015Z,2692
2018-01-15T08:59:03.041Z,2776
2018-01-15T09:00:02.790Z,2872
2018-01-15T09:01:02.890Z,2976
2018-01-15T09:02:03.321Z,3068
2018-01-15T09:03:03.081Z,3124
2018-01-15T09:04:03.349Z,3184
2018-01-15T09:05:03.363Z,3240
2018-01-15T09:06:02.873Z,3312
2018-01-15T09:07:02.689Z,3380
2018-01-15T09:08:03.149Z,3456
2018-01-15T09:09:03.418Z,3520
2018-01-15T09:10:03.182Z,3564
2018-01-15T09:11:02.940Z,3608
2018-01-15T09:12:03.463Z,3656
2018-01-15T09:13:03.220Z,3708
2018-01-15T09:14:03.484Z,3776
2018-01-15T09:15:02.786Z,3880
2018-01-15T09:16:02.759Z,4016
2018-01-15T09:17:03.272Z,4176
2018-01-15T09:18:03.042Z,4356
2018-01-15T09:19:03.307Z,4560
2018-01-15T09:20:03.317Z,4772
2018-01-15T09:21:03.590Z,4992
2018-01-15T09:22:03.398Z,5212
2018-01-15T09:23:03.105Z,5432
2018-01-15T09:24:03.392Z,5644
2018-01-15T09:25:03.393Z,5860
2018-01-15T09:26:03.148Z,6072
2018-01-15T09:27:03.420Z,6328
2018-01-15T09:28:03.428Z,6636
2018-01-15T09:29:03.443Z,6984
2018-01-15T09:30:03.453Z,7256
2018-01-15T09:31:03.473Z,7512
2018-01-15T09:32:03.493Z,7684
2018-01-15T09:33:03.246Z,7840
2018-01-15T09:34:03.261Z,8640
2018-01-15T09:35:03.529Z,8076
2018-01-15T09:36:03.801Z,8236
2018-01-15T09:37:03.607Z,8080
2018-01-15T09:38:03.320Z,8072
2018-01-15T09:39:03.588Z,8300
2018-01-15T09:40:03.100Z,8044
2018-01-15T09:41:03.868Z,7444
2018-01-15T09:42:03.636Z,7360
2018-01-15T09:43:03.393Z,6804
2018-01-15T09:44:03.159Z,6464
2018-01-15T09:45:03.696Z,7932
2018-01-15T09:46:03.691Z,5900
2018-01-15T09:47:03.710Z,6136
2018-01-15T09:48:03.725Z,7328
2018-01-15T09:49:03.483Z,7472
2018-01-15T09:50:03.502Z,7300
2018-01-15T09:51:03.768Z,7348
2018-01-15T09:52:03.837Z,7332
2018-01-15T09:53:04.057Z,7372
2018-01-15T09:54:04.062Z,7388
2018-01-15T09:55:03.324Z,7416
2018-01-15T09:56:03.852Z,7404
2018-01-15T09:57:03.604Z,7428
2018-01-15T09:58:03.618Z,7420
2018-01-15T09:59:03.386Z,7500
2018-01-15T10:00:04.155Z,7572
2018-01-15T10:01:03.919Z,7596
2018-01-15T10:02:03.680Z,7632
2018-01-15T10:03:03.691Z,7672
2018-01-15T10:04:03.711Z,7704
2018-01-15T10:05:03.725Z,7916
2018-01-15T10:06:03.744Z,15520
2018-01-15T10:07:04.052Z,27488
2018-01-15T10:08:04.281Z,30464
2018-01-15T10:09:04.344Z,32192
2018-01-15T10:10:03.545Z,32256
2018-01-15T10:11:04.069Z,31456
2018-01-15T10:12:03.832Z,31968
2018-01-15T10:13:04.353Z,32224
2018-01-15T10:14:04.118Z,32480
2018-01-15T10:15:04.138Z,33824
2018-01-15T10:16:04.440Z,33984
2018-01-15T10:17:04.177Z,34304
2018-01-15T10:18:04.186Z,35488
2018-01-15T10:19:03.951Z,37888
2018-01-15T10:20:04.218Z,38112
2018-01-15T10:21:03.989Z,26368
2018-01-15T10:22:04.057Z,26784
2018-01-15T10:23:04.525Z,37664
2018-01-15T10:24:04.550Z,38656
2018-01-15T10:25:04.314Z,39776
2018-01-15T10:26:04.326Z,31616
2018-01-15T10:27:04.353Z,42368
2018-01-15T10:28:04.371Z,42784
2018-01-15T10:29:04.656Z,41344
2018-01-15T10:30:04.171Z,42112
2018-01-15T10:31:04.188Z,40512
2018-01-15T10:32:04.209Z,41280
2018-01-15T10:33:04.496Z,37280
2018-01-15T10:34:04.521Z,38176
2018-01-15T10:35:04.787Z,31872
2018-01-15T10:36:04.554Z,31360
2018-01-15T10:37:04.930Z,31776
2018-01-15T10:38:04.347Z,39776
2018-01-15T10:39:04.117Z,42496
2018-01-15T10:40:04.897Z,31456
2018-01-15T10:41:04.417Z,37088
2018-01-15T10:42:04.698Z,32288
2018-01-15T10:43:04.723Z,42368
2018-01-15T10:44:04.747Z,44928
2018-01-15T10:45:04.775Z,48096
2018-01-15T10:46:04.540Z,50496
2018-01-15T10:47:05.070Z,48672
2018-01-15T10:48:04.338Z,48192
2018-01-15T10:49:04.864Z,48672
2018-01-15T10:50:04.640Z,45664
2018-01-15T10:51:04.676Z,42720
2018-01-15T10:52:04.740Z,45984
2018-01-15T10:53:04.965Z,46976
2018-01-15T10:54:04.488Z,48512
2018-01-15T10:55:05.016Z,43936
2018-01-15T10:56:05.300Z,35136
2018-01-15T10:57:04.568Z,51104
2018-01-15T10:58:05.095Z,54752
2018-01-15T10:59:05.128Z,52672
2018-01-15T11:00:04.676Z,50912
2018-01-15T11:01:04.924Z,48480
2018-01-15T11:02:05.456Z,50112
2018-01-15T11:03:05.230Z,46688
2018-01-15T11:04:05.013Z,50400
2018-01-15T11:05:05.032Z,50912
2018-01-15T11:06:05.313Z,44608
2018-01-15T11:07:05.393Z,53568
2018-01-15T11:08:05.621Z,51168
2018-01-15T11:09:05.395Z,47584
2018-01-15T11:10:04.922Z,42080
2018-01-15T11:11:05.200Z,37696
2018-01-15T11:12:05.502Z,36896
2018-01-15T11:13:05.507Z,36736
2018-01-15T11:14:05.808Z,35936
2018-01-15T11:15:05.567Z,34496
2018-01-15T11:16:05.677Z,33024
2018-01-15T11:17:05.629Z,34080
2018-01-15T11:18:05.435Z,33600
2018-01-15T11:19:05.427Z,32032
2018-01-15T11:20:05.213Z,32512
2018-01-15T11:21:05.990Z,37504
2018-01-15T11:22:06.375Z,39744
2018-01-15T11:23:05.624Z,40736
2018-01-15T11:24:05.828Z,42016
2018-01-15T11:25:05.597Z,40384
2018-01-15T11:26:05.634Z,36512
2018-01-15T11:27:06.163Z,37920
2018-01-15T11:28:06.523Z,40608
2018-01-15T11:29:05.963Z,40320
2018-01-15T11:30:05.995Z,39424
2018-01-15T11:31:06.025Z,39712
2018-01-15T11:32:06.053Z,41664
2018-01-15T11:33:05.829Z,46624
2018-01-15T11:34:06.109Z,50240
2018-01-15T11:35:06.142Z,48832
2018-01-15T11:36:06.173Z,48768
2018-01-15T11:37:06.251Z,50016
2018-01-15T11:38:06.577Z,53632
2018-01-15T11:39:06.512Z,53312
2018-01-15T11:40:06.037Z,50752
2018-01-15T11:41:06.318Z,48480
2018-01-15T11:42:06.351Z,47168
2018-01-15T11:43:06.100Z,46560
2018-01-15T11:44:06.128Z,48192
2018-01-15T11:45:06.664Z,51360
2018-01-15T11:46:06.684Z,52640
2018-01-15T11:47:06.501Z,53600
2018-01-15T11:48:06.528Z,53792
2018-01-15T11:49:06.571Z,53792
2018-01-15T11:50:06.343Z,55776
2018-01-15T11:51:06.370Z,55456
2018-01-15T11:52:06.702Z,54976
2018-01-15T11:53:06.428Z,51968
2018-01-15T11:54:06.464Z,48832
2018-01-15T11:55:07.003Z,50944
2018-01-15T11:56:06.521Z,52832
2018-01-15T11:57:07.062Z,53184
2018-01-15T11:58:07.088Z,52320
2018-01-15T11:59:06.875Z,56928
2018-01-15T12:00:07.167Z,61408
2018-01-15T12:01:06.938Z,63776
2018-01-15T12:02:06.962Z,64352
2018-01-15T12:03:07.254Z,63648
2018-01-15T12:04:07.033Z,63008
2018-01-15T12:05:07.312Z,61088
2018-01-15T12:06:07.340Z,58432
2018-01-15T12:07:06.918Z,58176
2018-01-15T12:08:07.206Z,58624
2018-01-15T12:09:07.189Z,60032
2018-01-15T12:10:07.464Z,58880
2018-01-15T12:11:07.276Z,57120
2018-01-15T12:12:07.025Z,57600
2018-01-15T12:13:07.302Z,57184
2018-01-15T12:14:07.368Z,58720
2018-01-15T12:15:07.114Z,59840
2018-01-15T12:16:07.402Z,57632
2018-01-15T12:17:07.236Z,57792
2018-01-15T12:18:07.469Z,59584
2018-01-15T12:19:07.018Z,58944
2018-01-15T12:20:07.781Z,55744
2018-01-15T12:21:07.062Z,55520
2018-01-15T12:22:07.398Z,58432
2018-01-15T12:23:07.877Z,60576
2018-01-15T12:24:07.406Z,61536
2018-01-15T12:25:07.448Z,62816
2018-01-15T12:26:07.724Z,63904
2018-01-15T12:27:07.752Z,65952
2018-01-15T12:28:07.783Z,63744
2018-01-15T12:29:07.328Z,63936
2018-01-15T12:30:07.883Z,63616
2018-01-15T12:31:07.377Z,61056
2018-01-15T12:32:07.663Z,63456
2018-01-15T12:33:07.691Z,65344
2018-01-15T12:34:07.998Z,68448
2018-01-15T12:35:08.009Z,69856
2018-01-15T12:36:07.789Z,71136
2018-01-15T12:37:08.125Z,75648
2018-01-15T12:38:07.852Z,74816
2018-01-15T12:39:08.391Z,72544
2018-01-15T12:40:08.201Z,66912
2018-01-15T12:41:07.951Z,63648
2018-01-15T12:42:08.235Z,66304
2018-01-15T12:43:07.757Z,68992
2018-01-15T12:44:07.790Z,70720
2018-01-15T12:45:08.074Z,73440
2018-01-15T12:46:08.357Z,73600
2018-01-15T12:47:08.143Z,75328
2018-01-15T12:48:08.425Z,73472
2018-01-15T12:49:08.452Z,73408
2018-01-15T12:50:08.736Z,73696
2018-01-15T12:51:08.522Z,73856
2018-01-15T12:52:08.347Z,73440
2018-01-15T12:53:08.332Z,70688
2018-01-15T12:54:08.364Z,72800
2018-01-15T12:55:08.647Z,73120
2018-01-15T12:56:08.445Z,70528
2018-01-15T12:57:08.971Z,73984
2018-01-15T12:58:08.749Z,75456
2018-01-15T12:59:09.025Z,76352
2018-01-15T13:00:08.556Z,78272
2018-01-15T13:01:08.588Z,78080
2018-01-15T13:02:08.371Z,79136
2018-01-15T13:03:09.157Z,79392
2018-01-15T13:04:08.684Z,77696
2018-01-15T13:05:08.974Z,77664
2018-01-15T13:06:08.752Z,78336
2018-01-15T13:07:08.788Z,77216
2018-01-15T13:08:09.069Z,76704
2018-01-15T13:09:08.851Z,77952
2018-01-15T13:10:09.184Z,77120
2018-01-15T13:11:09.420Z,72544
2018-01-15T13:12:08.941Z,70688
2018-01-15T13:13:09.229Z,70688
2018-01-15T13:14:08.757Z,68832
2018-01-15T13:15:09.294Z,62976
2018-01-15T13:16:09.576Z,61120
2018-01-15T13:17:09.366Z,64512
2018-01-15T13:18:09.397Z,63872
2018-01-15T13:19:09.172Z,65504
2018-01-15T13:20:09.456Z,67424
2018-01-15T13:21:09.489Z,65312
2018-01-15T13:22:09.268Z,65856
2018-01-15T13:23:09.305Z,68096
2018-01-15T13:24:09.330Z,70720
2018-01-15T13:25:09.163Z,71360
2018-01-15T13:26:09.397Z,71968
2018-01-15T13:27:09.689Z,74272
2018-01-15T13:28:09.726Z,76480
2018-01-15T13:29:09.744Z,75936
2018-01-15T13:30:09.815Z,74656
2018-01-15T13:31:09.811Z,73312
2018-01-15T13:32:09.591Z,72288
2018-01-15T13:33:09.875Z,71520
2018-01-15T13:34:09.911Z,72800
2018-01-15T13:35:09.439Z,71904
2018-01-15T13:36:09.971Z,74880
2018-01-15T13:37:09.750Z,76352
2018-01-15T13:38:10.293Z,72512
2018-01-15T13:39:10.068Z,53536
2018-01-15T13:40:10.102Z,28416
2018-01-15T13:41:09.625Z,9136
2018-01-15T13:42:10.178Z,8268
2018-01-15T13:43:09.967Z,10540
2018-01-15T13:44:10.478Z,9392
2018-01-15T13:45:10.272Z,9396
2018-01-15T13:46:10.036Z,9572
2018-01-15T13:47:10.314Z,9388
2018-01-15T13:48:10.356Z,8400
2018-01-15T13:49:10.378Z,8204
2018-01-15T13:50:10.171Z,8852
2018-01-15T13:51:10.185Z,8852
2018-01-15T13:52:10.464Z,8916
2018-01-15T13:53:10.236Z,9132
2018-01-15T13:54:10.011Z,8696
2018-01-15T13:55:10.571Z,8292